Time;durP1;ratioP1;P1;durP2;ratioP2;P2;SDS_P1;SDS_P2;PMS_P1;PMS_P2;Temp;Humidity;BMP_temperature;BMP_pressure;BME280_temperature;BME280_humidity;BME280_pressure;Samples;Min_cycle;Max_cycle;Signal;HPM_P1;HPM_P2
2022/07/22 00:01:51;;;;;;;1.40;1.20;;;19.90;54.50;22.10;94281.00;;;;10459483;28;45260;-62
2022/07/22 00:07:12;;;;;;;1.95;1.40;;;19.90;54.60;22.10;94284.00;;;;10470433;28;45165;-63
2022/07/22 00:12:35;;;;;;;1.55;1.10;;;19.90;54.50;22.10;94280.00;;;;10471471;28;45442;-63
2022/07/22 00:17:56;;;;;;;1.52;1.40;;;19.90;54.60;22.10;94278.00;;;;10471156;28;45123;-62
2022/07/22 00:23:16;;;;;;;1.67;1.40;;;19.90;54.70;22.10;94276.00;;;;10470914;28;45160;-61
2022/07/22 00:28:38;;;;;;;1.92;1.30;;;19.90;54.70;22.10;94273.00;;;;10470492;28;45214;-62
2022/07/22 00:34:01;;;;;;;1.88;1.23;;;19.90;54.70;22.10;94269.00;;;;10470140;28;45245;-62
2022/07/22 00:39:22;;;;;;;1.70;1.38;;;19.90;54.70;22.10;94249.00;;;;10470097;28;45172;-61
2022/07/22 00:44:45;;;;;;;1.30;1.20;;;19.90;54.80;22.10;94264.00;;;;10485027;28;45438;-62
2022/07/22 00:50:07;;;;;;;2.53;1.50;;;19.90;54.80;22.10;94256.00;;;;10478245;28;45470;-63
2022/07/22 00:55:29;;;;;;;1.67;1.40;;;19.90;54.80;22.10;94259.00;;;;10476424;28;45596;-63
2022/07/22 01:00:51;;;;;;;1.63;1.33;;;19.90;54.80;22.10;94237.00;;;;10473070;28;45149;-63
2022/07/22 01:06:11;;;;;;;1.85;1.38;;;19.90;54.80;22.10;94245.00;;;;10474576;28;45201;-63
2022/07/22 01:11:32;;;;;;;1.65;1.38;;;19.90;54.80;22.10;94229.00;;;;10476708;28;45199;-63
2022/07/22 01:16:54;;;;;;;1.85;1.40;;;19.90;54.80;22.00;94235.00;;;;10476907;28;45626;-63
2022/07/22 01:22:16;;;;;;;2.15;1.50;;;19.90;54.80;22.00;94236.00;;;;10476583;28;45174;-63
2022/07/22 01:27:36;;;;;;;3.13;1.50;;;19.90;54.90;22.10;94237.00;;;;10476538;28;45172;-62
2022/07/22 01:32:57;;;;;;;1.80;1.30;;;19.90;54.90;22.10;94240.00;;;;10476240;28;45160;-63
2022/07/22 01:38:19;;;;;;;2.03;1.40;;;19.90;54.90;22.00;94229.00;;;;10474907;28;45365;-63
2022/07/22 01:43:40;;;;;;;1.38;1.20;;;19.90;54.90;22.00;94227.00;;;;10489536;28;45231;-61
2022/07/22 01:49:00;;;;;;;1.80;1.38;;;19.90;54.90;22.00;94234.00;;;;10462899;28;45240;-62
2022/07/22 01:54:22;;;;;;;2.05;1.50;;;19.90;54.90;22.00;94238.00;;;;10475305;28;45283;-62
2022/07/22 01:59:43;;;;;;;1.73;1.35;;;19.90;55.00;22.10;94243.00;;;;10474883;28;45500;-62
2022/07/22 02:05:04;;;;;;;1.90;1.30;;;19.80;54.90;22.00;94248.00;;;;10488109;28;45231;-62
2022/07/22 02:10:26;;;;;;;2.17;1.50;;;19.80;54.90;22.00;94229.00;;;;10475269;28;45273;-63
2022/07/22 02:15:47;;;;;;;1.98;1.60;;;19.90;54.90;22.00;94238.00;;;;10474640;28;45159;-62
2022/07/22 02:21:07;;;;;;;3.22;1.60;;;19.80;54.90;22.00;94221.00;;;;10474492;28;45204;-62
2022/07/22 02:26:29;;;;;;;2.58;1.70;;;19.90;55.00;22.00;94228.00;;;;10473972;28;45216;-62
2022/07/22 02:31:50;;;;;;;2.75;1.60;;;19.90;54.90;22.00;94220.00;;;;10474368;28;45235;-62
2022/07/22 02:37:10;;;;;;;3.20;1.80;;;19.80;55.60;22.00;94227.00;;;;10473288;28;45536;-63
2022/07/22 02:42:32;;;;;;;2.70;1.98;;;19.90;54.90;22.00;94225.00;;;;10463791;28;45482;-65
2022/07/22 02:47:56;;;;;;;2.70;2.00;;;19.80;54.90;22.00;94226.00;;;;10494319;28;45220;-62
2022/07/22 02:53:16;;;;;;;2.90;1.75;;;19.80;54.90;22.00;94218.00;;;;10473680;28;45275;-60
2022/07/22 02:58:38;;;;;;;2.75;1.95;;;19.80;54.80;22.00;94219.00;;;;10473630;28;45171;-63
2022/07/22 03:03:58;;;;;;;2.47;1.60;;;19.80;54.80;22.00;94212.00;;;;10486914;28;45157;-63
2022/07/22 03:09:19;;;;;;;2.63;1.65;;;19.80;54.80;22.00;94221.00;;;;10468269;28;45165;-62
2022/07/22 03:14:41;;;;;;;2.30;1.70;;;19.80;54.80;22.00;94221.00;;;;10472459;28;45199;-62
2022/07/22 03:20:03;;;;;;;2.85;1.80;;;19.80;54.80;22.00;94217.00;;;;10473063;28;45269;-62
2022/07/22 03:25:24;;;;;;;3.20;1.88;;;19.80;54.80;22.00;94210.00;;;;10472343;28;45224;-62
2022/07/22 03:30:46;;;;;;;4.15;2.20;;;19.80;54.60;22.00;94218.00;;;;10472797;28;45449;-63
2022/07/22 03:36:07;;;;;;;2.05;1.65;;;19.80;54.60;22.00;94214.00;;;;10472402;28;45182;-62
2022/07/22 03:41:28;;;;;;;2.22;1.65;;;19.80;54.60;22.00;94209.00;;;;10471703;28;45184;-62
2022/07/22 03:46:50;;;;;;;2.85;1.95;;;19.80;54.70;22.00;94205.00;;;;10466333;28;45268;-63
2022/07/22 03:52:10;;;;;;;2.78;1.80;;;19.80;54.60;22.00;94212.00;;;;10471777;28;45360;-62
2022/07/22 03:57:31;;;;;;;3.15;1.90;;;19.80;54.70;22.00;94211.00;;;;10470815;28;45699;-62
2022/07/22 04:02:53;;;;;;;2.30;2.00;;;19.80;54.80;22.00;94197.00;;;;10481763;28;45832;-62
2022/07/22 04:08:14;;;;;;;2.60;1.98;;;19.80;54.70;22.00;94200.00;;;;10457310;28;45196;-63
2022/07/22 04:13:35;;;;;;;2.75;1.83;;;19.80;54.80;22.00;94202.00;;;;10470906;28;45271;-62
2022/07/22 04:18:56;;;;;;;2.88;2.00;;;19.80;54.70;22.00;94188.00;;;;10470234;28;45265;-62
2022/07/22 04:24:17;;;;;;;2.05;1.70;;;19.80;54.80;22.00;94185.00;;;;10470715;28;45309;-62
2022/07/22 04:29:37;;;;;;;2.38;1.80;;;19.80;54.70;21.90;94190.00;;;;10471177;28;45291;-63
2022/07/22 04:34:59;;;;;;;4.05;1.88;;;19.80;54.40;21.90;94184.00;;;;10470069;28;45258;-61
2022/07/22 04:40:20;;;;;;;4.28;2.25;;;19.80;53.90;21.90;94181.00;;;;10469829;28;45177;-63
2022/07/22 04:45:40;;;;;;;2.72;1.80;;;19.80;53.80;21.90;94177.00;;;;10485453;28;45246;-63
2022/07/22 04:51:03;;;;;;;3.25;1.90;;;19.70;54.20;21.90;94185.00;;;;10470355;28;45207;-63
2022/07/22 04:56:24;;;;;;;4.82;2.20;;;19.80;54.00;21.90;94178.00;;;;10469390;28;45214;-62
2022/07/22 05:01:44;;;;;;;2.33;1.80;;;19.70;53.90;21.90;94195.00;;;;10470243;28;45251;-63
2022/07/22 05:07:06;;;;;;;3.10;1.92;;;19.80;54.10;21.90;94197.00;;;;10469903;28;45223;-63
2022/07/22 05:12:27;;;;;;;2.75;2.10;;;19.80;54.10;21.90;94203.00;;;;10469718;28;45601;-63
2022/07/22 05:17:48;;;;;;;3.25;2.10;;;19.70;54.10;21.90;94200.00;;;;10469680;28;45197;-63
2022/07/22 05:23:10;;;;;;;2.50;1.83;;;19.70;54.20;22.00;94195.00;;;;10469921;28;45432;-63
2022/07/22 05:28:30;;;;;;;3.42;2.30;;;19.80;54.30;22.00;94203.00;;;;10468771;28;45354;-62
2022/07/22 05:33:51;;;;;;;3.22;2.17;;;19.80;54.20;22.00;94200.00;;;;10477254;28;45562;-62
2022/07/22 05:39:13;;;;;;;4.63;2.38;;;19.80;54.20;22.00;94192.00;;;;10475356;28;45187;-62
2022/07/22 05:44:34;;;;;;;3.75;2.10;;;19.80;54.20;22.00;94190.00;;;;10486936;28;45424;-62
2022/07/22 05:49:54;;;;;;;3.33;2.00;;;19.80;54.20;22.00;94195.00;;;;10474513;28;45236;-62
2022/07/22 05:55:16;;;;;;;3.20;2.20;;;19.80;54.30;22.00;94180.00;;;;10473250;28;45171;-63
2022/07/22 06:00:37;;;;;;;3.60;2.25;;;19.80;54.30;22.00;94191.00;;;;10474162;28;45261;-62
2022/07/22 06:05:57;;;;;;;4.28;2.17;;;19.90;54.30;22.00;94187.00;;;;10486645;28;45205;-63
2022/07/22 06:11:19;;;;;;;2.58;1.73;;;19.80;54.30;22.10;94189.00;;;;10473061;28;45281;-62
2022/07/22 06:16:40;;;;;;;3.15;2.15;;;19.90;54.40;22.10;94200.00;;;;10473273;28;45207;-68
2022/07/22 06:22:00;;;;;;;3.20;2.10;;;19.90;54.90;22.10;94200.00;;;;10470440;28;45207;-62
2022/07/22 06:27:22;;;;;;;3.83;2.00;;;19.90;54.90;22.10;94189.00;;;;10470860;28;45164;-61
2022/07/22 06:32:43;;;;;;;4.13;2.03;;;19.90;55.00;22.10;94195.00;;;;10478912;28;45188;-61
2022/07/22 06:38:03;;;;;;;4.55;1.75;;;20.00;55.00;22.10;94192.00;;;;10471789;28;45246;-63
2022/07/22 06:43:25;;;;;;;2.50;1.85;;;20.00;55.10;22.20;94209.00;;;;10471943;28;45557;-63
2022/07/22 06:48:46;;;;;;;3.50;1.83;;;20.00;55.10;22.20;94191.00;;;;10469105;28;45391;-63
2022/07/22 06:54:07;;;;;;;3.25;2.10;;;20.00;55.10;22.20;94194.00;;;;10474100;28;45280;-65
2022/07/22 06:59:29;;;;;;;3.90;1.88;;;20.00;55.10;22.20;94195.00;;;;10470571;28;45169;-65
2022/07/22 07:04:49;;;;;;;2.85;1.90;;;20.10;55.80;22.20;94190.00;;;;10471320;28;45150;-65
2022/07/22 07:10:12;;;;;;;3.50;2.08;;;20.00;55.20;22.20;94170.00;;;;10471250;28;45309;-64
2022/07/22 07:15:34;;;;;;;3.17;2.20;;;20.00;55.10;22.20;94185.00;;;;10479143;28;45257;-64
2022/07/22 07:20:54;;;;;;;3.83;2.00;;;20.00;55.10;22.10;94170.00;;;;10471932;28;45267;-65
2022/07/22 07:26:16;;;;;;;2.38;1.90;;;20.00;55.20;22.10;94179.00;;;;10469437;28;45234;-64
2022/07/22 07:31:38;;;;;;;4.15;1.80;;;20.00;55.30;22.10;94177.00;;;;10470454;28;45206;-64
2022/07/22 07:36:58;;;;;;;2.83;1.98;;;19.90;55.20;22.10;94171.00;;;;10470912;28;45228;-65
2022/07/22 07:42:19;;;;;;;3.90;1.83;;;19.90;55.20;22.20;94161.00;;;;10470459;28;45290;-64
2022/07/22 07:47:41;;;;;;;3.10;1.77;;;20.00;55.10;22.10;94167.00;;;;10482303;28;45291;-64
2022/07/22 07:53:02;;;;;;;2.97;2.15;;;20.00;55.20;22.10;94149.00;;;;10469393;28;45147;-65
2022/07/22 07:58:23;;;;;;;2.60;1.92;;;19.90;55.20;22.10;94165.00;;;;10469510;28;45168;-65
2022/07/22 08:03:45;;;;;;;3.13;2.00;;;20.00;55.20;22.10;94168.00;;;;10470350;28;45174;-63
2022/07/22 08:09:05;;;;;;;3.45;2.15;;;19.90;55.20;22.10;94139.00;;;;10469436;28;45349;-65
2022/07/22 08:14:26;;;;;;;2.90;2.10;;;19.90;55.20;22.10;94153.00;;;;10469048;28;45313;-64
2022/07/22 08:19:48;;;;;;;3.13;2.00;;;19.90;55.10;22.10;94135.00;;;;10468695;28;45223;-65
2022/07/22 08:25:09;;;;;;;3.15;2.00;;;19.90;55.10;22.10;94150.00;;;;10469107;28;45207;-64
2022/07/22 08:30:30;;;;;;;3.08;1.85;;;20.00;55.20;22.10;94138.00;;;;10469281;28;45234;-64
2022/07/22 08:35:51;;;;;;;2.75;1.75;;;19.90;55.10;22.10;94147.00;;;;10468410;28;45177;-65
2022/07/22 08:41:15;;;;;;;4.03;2.22;;;19.90;55.10;22.10;94138.00;;;;10469200;28;45176;-64
2022/07/22 08:46:36;;;;;;;3.38;2.03;;;20.00;55.10;22.10;94142.00;;;;10473976;28;45299;-63
2022/07/22 08:51:58;;;;;;;2.78;1.92;;;19.90;55.10;22.10;94136.00;;;;10474961;28;45241;-62
2022/07/22 08:57:19;;;;;;;8.27;1.90;;;20.00;55.00;22.20;94140.00;;;;10467649;28;45514;-61
2022/07/22 09:02:41;;;;;;;4.15;2.20;;;20.00;55.00;22.20;94122.00;;;;10480916;28;45216;-61
2022/07/22 09:08:05;;;;;;;3.60;1.95;;;20.00;55.20;22.20;94137.00;;;;10480976;28;45411;-64
2022/07/22 09:13:26;;;;;;;3.30;2.05;;;20.10;55.30;22.20;94128.00;;;;10462411;28;45427;-64
2022/07/22 09:18:49;;;;;;;4.30;2.22;;;20.10;55.40;22.20;94135.00;;;;10474943;28;45197;-64
2022/07/22 09:24:28;;;;;;;3.17;1.80;;;20.00;55.50;22.20;94137.00;;;;10475040;28;45130;-64
2022/07/22 09:29:51;;;;;;;3.53;1.92;;;20.00;55.50;22.20;94141.00;;;;10467885;28;45224;-64
2022/07/22 09:35:13;;;;;;;3.47;1.85;;;20.00;55.50;22.20;94117.00;;;;10478006;28;45122;-63
2022/07/22 09:40:37;;;;;;;3.40;2.10;;;20.10;55.30;22.20;94119.00;;;;10477017;28;45192;-61
2022/07/22 09:45:58;;;;;;;2.65;1.90;;;20.10;55.40;22.30;94131.00;;;;10477368;28;45187;-63
2022/07/22 09:51:20;;;;;;;4.60;2.17;;;20.10;55.30;22.30;94120.00;;;;10487639;28;45133;-61
2022/07/22 09:56:42;;;;;;;4.10;2.25;;;20.20;55.20;22.30;94115.00;;;;10474411;28;45204;-61
2022/07/22 10:02:06;;;;;;;6.40;3.28;;;20.20;55.20;22.30;94120.00;;;;10466680;28;45146;-61
2022/07/22 10:07:28;;;;;;;9.73;3.90;;;20.20;55.20;22.30;94125.00;;;;10480796;28;45511;-62
2022/07/22 10:12:53;;;;;;;9.07;3.65;;;20.10;55.30;22.30;94120.00;;;;10474405;28;45191;-62
2022/07/22 10:18:17;;;;;;;8.05;3.63;;;20.10;55.30;22.30;94119.00;;;;10473150;28;45224;-61
2022/07/22 10:24:17;;;;;;;7.63;3.13;;;20.10;55.30;22.30;94101.00;;;;10474176;28;45227;-61
2022/07/22 10:29:44;;;;;;;8.73;3.38;;;20.10;55.30;22.30;94106.00;;;;10474663;28;45181;-61
2022/07/22 10:35:24;;;;;;;6.88;3.22;;;20.10;55.20;22.30;94100.00;;;;10473780;28;45189;-62
2022/07/22 10:40:55;;;;;;;7.30;3.30;;;20.10;55.10;22.30;94095.00;;;;10474140;28;45456;-61
2022/07/22 10:46:17;;;;;;;9.15;3.60;;;20.20;55.20;22.30;94091.00;;;;10475103;28;45163;-61
2022/07/22 10:51:37;;;;;;;9.25;3.30;;;20.10;55.30;22.30;94104.00;;;;10481096;28;45118;-61
2022/07/22 10:57:01;;;;;;;8.73;3.72;;;20.10;55.40;22.30;94098.00;;;;10471455;28;45170;-61
2022/07/22 11:02:24;;;;;;;5.90;3.00;;;20.10;55.40;22.30;94084.00;;;;10476556;28;45170;-60
2022/07/22 11:07:47;;;;;;;7.25;3.38;;;20.10;55.40;22.30;94089.00;;;;10472836;28;45323;-62
2022/07/22 11:13:08;;;;;;;6.70;3.13;;;20.10;55.40;22.20;94077.00;;;;10459718;28;45457;-61
2022/07/22 11:18:49;;;;;;;6.22;2.85;;;20.10;55.40;22.20;94083.00;;;;10473905;28;45239;-60
2022/07/22 11:24:10;;;;;;;8.48;3.40;;;20.10;55.50;22.20;94067.00;;;;10474691;28;45238;-61
2022/07/22 11:29:34;;;;;;;6.85;3.03;;;20.00;55.40;22.20;94076.00;;;;10472926;28;45412;-61
2022/07/22 11:34:57;;;;;;;7.97;3.40;;;20.00;55.40;22.20;94072.00;;;;10477939;28;45112;-60
2022/07/22 11:40:18;;;;;;;6.18;2.63;;;20.00;55.40;22.20;94065.00;;;;10478513;28;45431;-60
2022/07/22 11:45:56;;;;;;;8.50;3.20;;;20.10;55.40;22.30;94059.00;;;;10462103;28;45202;-62
2022/07/22 11:51:19;;;;;;;5.65;3.00;;;20.00;55.30;22.20;94045.00;;;;10480221;28;45230;-60
2022/07/22 11:56:40;;;;;;;6.53;3.05;;;20.10;55.40;22.20;94040.00;;;;10470889;28;47766;-61
2022/07/22 12:02:01;;;;;;;6.68;3.13;;;20.10;55.30;22.30;94045.00;;;;10473563;28;45237;-61
2022/07/22 12:07:23;;;;;;;4.63;2.72;;;20.10;55.30;22.30;94036.00;;;;10477234;28;45164;-61
2022/07/22 12:12:48;;;;;;;5.65;2.80;;;20.10;55.40;22.30;94030.00;;;;10470200;28;45279;-60
2022/07/22 12:18:20;;;;;;;4.90;2.67;;;20.20;55.50;22.30;94021.00;;;;10474660;28;45276;-60
2022/07/22 12:23:51;;;;;;;5.45;2.70;;;20.20;55.40;22.30;94021.00;;;;10471430;28;45148;-60
2022/07/22 12:29:23;;;;;;;4.55;2.60;;;20.20;55.40;22.30;94005.00;;;;10469889;28;45398;-60
2022/07/22 12:34:46;;;;;;;8.02;3.22;;;20.10;55.30;22.30;94006.00;;;;10468474;28;45129;-61
2022/07/22 12:40:14;;;;;;;4.68;2.78;;;20.20;55.30;22.30;94007.00;;;;10470863;28;45203;-62
2022/07/22 12:45:37;;;;;;;5.18;2.40;;;20.20;55.30;22.30;93995.00;;;;10476577;28;45235;-60
2022/07/22 12:50:59;;;;;;;5.18;2.58;;;20.20;55.20;22.40;94001.00;;;;10492106;28;45346;-62
2022/07/22 12:56:22;;;;;;;5.25;2.53;;;20.20;55.20;22.40;94002.00;;;;10475543;28;45229;-60
2022/07/22 13:01:42;;;;;;;4.68;2.38;;;20.20;55.00;22.40;93990.00;;;;10477136;28;45204;-60
2022/07/22 13:07:03;;;;;;;5.72;2.97;;;20.30;55.10;22.40;93991.00;;;;10485894;28;45330;-60
2022/07/22 13:12:24;;;;;;;7.35;3.22;;;20.30;55.30;22.40;93991.00;;;;10476247;28;45186;-63
2022/07/22 13:17:45;;;;;;;6.10;3.00;;;20.20;55.30;22.40;93987.00;;;;10475493;28;45138;-59
2022/07/22 13:23:06;;;;;;;6.57;3.42;;;20.30;55.30;22.40;93979.00;;;;10475042;28;45379;-59
2022/07/22 13:28:29;;;;;;;7.07;3.25;;;20.30;55.30;22.40;93991.00;;;;10474465;28;45384;-61
2022/07/22 13:33:49;;;;;;;8.48;3.40;;;20.30;55.30;22.40;93981.00;;;;10474085;28;45277;-61
2022/07/22 13:39:10;;;;;;;7.32;3.58;;;20.30;55.20;22.50;93976.00;;;;10475067;28;45263;-60
2022/07/22 13:44:33;;;;;;;6.97;3.47;;;20.30;55.20;22.50;93970.00;;;;10474061;28;45185;-60
2022/07/22 13:49:54;;;;;;;5.80;3.30;;;20.30;55.10;22.50;93964.00;;;;10489030;28;45139;-60
2022/07/22 13:55:15;;;;;;;7.97;3.63;;;20.40;55.20;22.50;93959.00;;;;10464943;28;45235;-62
2022/07/22 14:00:36;;;;;;;8.50;3.95;;;20.40;55.20;22.50;93960.00;;;;10472718;28;45276;-61
2022/07/22 14:05:57;;;;;;;7.22;3.70;;;20.40;55.20;22.50;93962.00;;;;10472930;28;45263;-60
2022/07/22 14:11:17;;;;;;;8.05;3.83;;;20.40;55.10;22.50;93960.00;;;;10473120;28;45288;-60
2022/07/22 14:16:39;;;;;;;7.57;3.70;;;20.40;55.20;22.50;93962.00;;;;10472490;28;45208;-61
2022/07/22 14:22:00;;;;;;;7.45;3.42;;;20.40;55.10;22.50;93964.00;;;;10472640;28;45213;-62
2022/07/22 14:27:20;;;;;;;6.70;3.50;;;20.40;55.10;22.60;93967.00;;;;10472501;28;45144;-60
2022/07/22 14:32:42;;;;;;;6.38;3.15;;;20.40;54.90;22.50;93969.00;;;;10472922;28;45289;-59
2022/07/22 14:38:03;;;;;;;6.43;3.15;;;20.40;56.00;22.50;93966.00;;;;10470655;28;45179;-61
2022/07/22 14:43:24;;;;;;;6.57;3.40;;;20.40;55.60;22.60;93972.00;;;;10470572;28;45152;-61
2022/07/22 14:48:48;;;;;;;6.35;3.38;;;20.50;55.50;22.50;93955.00;;;;10474772;28;45668;-61
2022/07/22 14:54:11;;;;;;;5.45;3.15;;;20.50;55.30;22.60;93967.00;;;;10468594;28;45256;-60
2022/07/22 14:59:32;;;;;;;7.95;3.15;;;20.50;55.20;22.60;93961.00;;;;10471583;28;45272;-61
2022/07/22 15:04:53;;;;;;;5.20;3.10;;;20.50;54.80;22.60;93971.00;;;;10471863;28;45144;-62
2022/07/22 15:10:15;;;;;;;5.40;3.03;;;20.50;54.30;22.60;93969.00;;;;10472220;28;45295;-60
2022/07/22 15:15:36;;;;;;;5.63;3.60;;;20.50;53.80;22.60;93958.00;;;;10471518;28;45256;-62
2022/07/22 15:20:58;;;;;;;6.45;3.22;;;20.50;53.20;22.70;93968.00;;;;10471763;28;45485;-61
2022/07/22 15:26:19;;;;;;;5.88;3.38;;;20.60;53.30;22.70;93962.00;;;;10471208;28;45302;-60
2022/07/22 15:31:39;;;;;;;5.85;3.40;;;20.60;53.20;22.70;93951.00;;;;10466147;28;45620;-60
2022/07/22 15:37:01;;;;;;;5.35;3.08;;;20.60;52.70;22.80;93951.00;;;;10469896;28;45155;-60
2022/07/22 15:42:22;;;;;;;5.18;3.33;;;20.60;52.70;22.70;93965.00;;;;10470574;28;45271;-61
2022/07/22 15:47:42;;;;;;;5.10;3.10;;;20.70;52.50;22.70;93956.00;;;;10468601;28;45168;-60
2022/07/22 15:53:04;;;;;;;5.25;2.88;;;20.60;52.30;22.70;93961.00;;;;10479027;28;45222;-61
2022/07/22 16:04:03;;;;;;;4.80;3.03;;;20.70;52.20;22.80;93942.00;;;;10483461;28;45129;-62
2022/07/22 16:09:26;;;;;;;5.75;3.33;;;20.70;52.10;22.80;93944.00;;;;10469522;28;45270;-61
2022/07/22 16:14:46;;;;;;;4.88;3.20;;;20.70;52.20;22.80;93949.00;;;;10467622;28;45206;-60
2022/07/22 16:20:08;;;;;;;7.50;3.17;;;20.70;52.40;22.80;93955.00;;;;10474082;28;45215;-61
2022/07/22 16:25:31;;;;;;;6.43;3.63;;;20.70;52.30;22.80;93915.00;;;;10469845;28;45259;-61
2022/07/22 16:30:52;;;;;;;4.88;3.10;;;20.70;52.50;22.80;93950.00;;;;10469060;28;45260;-62
2022/07/22 16:36:12;;;;;;;6.03;3.03;;;20.70;52.60;22.80;93921.00;;;;10469121;28;45219;-60
2022/07/22 16:41:34;;;;;;;5.53;3.45;;;20.70;52.60;22.80;93923.00;;;;10467106;28;45306;-60
2022/07/22 16:46:55;;;;;;;4.50;3.30;;;20.70;52.60;22.80;93921.00;;;;10467806;28;45165;-61
2022/07/22 16:52:16;;;;;;;6.05;3.30;;;20.70;52.70;22.80;93934.00;;;;10483009;28;45346;-61
2022/07/22 16:57:39;;;;;;;4.75;3.15;;;20.70;52.70;22.80;93921.00;;;;10463743;28;45335;-60
2022/07/22 17:02:59;;;;;;;4.20;3.17;;;20.70;52.90;22.80;93930.00;;;;10475705;28;45395;-60
2022/07/22 17:08:20;;;;;;;4.70;3.08;;;20.70;53.00;22.80;93911.00;;;;10454483;28;45224;-60
2022/07/22 17:13:44;;;;;;;4.78;3.30;;;20.70;53.00;22.80;93932.00;;;;10467581;28;45225;-60
2022/07/22 17:19:05;;;;;;;3.22;2.80;;;20.70;53.30;22.80;93927.00;;;;10467060;28;45079;-60
2022/07/22 17:24:25;;;;;;;4.53;3.30;;;20.60;53.30;22.70;93927.00;;;;10465836;28;45261;-60
2022/07/22 17:29:48;;;;;;;4.10;3.13;;;20.60;53.30;22.70;93942.00;;;;10474295;28;45186;-61
2022/07/22 17:35:09;;;;;;;4.18;3.15;;;20.60;53.40;22.70;93944.00;;;;10473824;28;45110;-59
2022/07/22 17:40:29;;;;;;;4.75;3.17;;;20.60;53.50;22.70;93947.00;;;;10475822;28;45484;-60
2022/07/22 17:45:51;;;;;;;4.15;2.78;;;20.60;53.60;22.70;93941.00;;;;10473582;28;45199;-61
2022/07/22 17:51:12;;;;;;;5.05;2.85;;;20.60;53.60;22.70;93942.00;;;;10473865;28;45374;-61
2022/07/22 17:56:32;;;;;;;5.43;3.30;;;20.60;53.60;22.70;93962.00;;;;10472708;28;45192;-62
2022/07/22 18:01:54;;;;;;;4.97;3.17;;;20.60;53.60;22.80;93951.00;;;;10461264;28;45313;-62
2022/07/22 18:07:15;;;;;;;5.35;3.30;;;20.60;53.70;22.70;93964.00;;;;10472717;28;45222;-63
2022/07/22 18:12:35;;;;;;;6.20;3.78;;;20.60;54.00;22.60;93967.00;;;;10473402;28;45226;-63
2022/07/22 18:17:58;;;;;;;7.30;4.30;;;20.50;54.20;22.60;93972.00;;;;10472724;28;45298;-64
2022/07/22 18:23:18;;;;;;;6.15;3.58;;;20.50;54.30;22.60;93962.00;;;;10471421;28;45311;-63
2022/07/22 18:28:40;;;;;;;5.70;3.55;;;20.50;54.30;22.60;93981.00;;;;10472815;28;45420;-62
2022/07/22 18:34:02;;;;;;;5.70;3.65;;;20.50;54.50;22.60;93995.00;;;;10473367;28;45179;-63
2022/07/22 18:39:22;;;;;;;4.78;3.30;;;20.40;54.60;22.50;93999.00;;;;10472412;28;45195;-63
2022/07/22 18:44:43;;;;;;;6.55;3.25;;;20.40;54.60;22.50;94018.00;;;;10472036;28;45212;-62
2022/07/22 18:50:06;;;;;;;5.15;3.35;;;20.40;54.60;22.50;94022.00;;;;10480680;28;45440;-63
2022/07/22 18:55:27;;;;;;;4.32;3.17;;;20.40;54.70;22.50;94019.00;;;;10476173;28;45252;-63
2022/07/22 19:00:47;;;;;;;5.32;3.03;;;20.40;54.70;22.50;94008.00;;;;10471779;28;45196;-63
2022/07/22 19:06:10;;;;;;;4.75;3.05;;;20.40;54.70;22.50;94043.00;;;;10471394;28;45159;-63
2022/07/22 19:11:30;;;;;;;4.15;3.03;;;20.30;54.60;22.50;94046.00;;;;10472240;28;45234;-63
2022/07/22 19:16:51;;;;;;;4.57;3.03;;;20.30;54.60;22.50;94051.00;;;;10471618;28;45132;-63
2022/07/22 19:22:12;;;;;;;4.38;3.10;;;20.30;54.60;22.50;94053.00;;;;10470349;28;45477;-63
2022/07/22 19:27:33;;;;;;;4.35;3.20;;;20.40;54.60;22.60;94074.00;;;;10470131;28;45480;-63
2022/07/22 19:32:54;;;;;;;3.97;3.05;;;20.40;54.50;22.60;94076.00;;;;10470619;28;45186;-62
2022/07/22 19:38:16;;;;;;;4.90;3.17;;;20.40;54.30;22.60;94068.00;;;;10470493;28;45085;-63
2022/07/22 19:43:37;;;;;;;4.93;3.10;;;20.40;54.10;22.60;94084.00;;;;10470421;28;45209;-62
2022/07/22 19:48:58;;;;;;;5.05;3.20;;;20.40;53.80;22.60;94088.00;;;;10468822;28;45222;-63
2022/07/22 19:54:20;;;;;;;4.55;3.10;;;20.40;53.90;22.60;94086.00;;;;10482518;28;45471;-62
2022/07/22 19:59:41;;;;;;;4.78;3.13;;;20.40;53.60;22.60;94074.00;;;;10469975;28;45411;-63
2022/07/22 20:05:01;;;;;;;4.75;3.28;;;20.40;53.70;22.60;94090.00;;;;10478016;28;45229;-63
2022/07/22 20:10:23;;;;;;;4.50;3.10;;;20.40;53.60;22.60;94099.00;;;;10469313;28;45272;-62
2022/07/22 20:15:44;;;;;;;3.63;2.55;;;20.40;53.70;22.70;94106.00;;;;10469262;28;45231;-62
2022/07/22 20:21:05;;;;;;;4.78;3.10;;;20.40;53.60;22.60;94093.00;;;;10468931;28;45213;-62
2022/07/22 20:26:26;;;;;;;3.88;2.85;;;20.50;53.70;22.70;94109.00;;;;10470274;28;45434;-63
2022/07/22 20:31:48;;;;;;;4.00;2.80;;;20.50;53.70;22.70;94095.00;;;;10469931;28;45346;-63
2022/07/22 20:37:09;;;;;;;4.13;3.10;;;20.50;53.80;22.70;94097.00;;;;10469437;28;45243;-63
2022/07/22 20:42:31;;;;;;;4.15;3.20;;;20.40;53.90;22.60;94092.00;;;;10469670;28;45191;-63
2022/07/22 20:47:52;;;;;;;5.22;3.33;;;20.40;53.90;22.60;94094.00;;;;10468976;28;45322;-63
2022/07/22 20:53:13;;;;;;;4.90;3.33;;;20.40;54.00;22.60;94077.00;;;;10485771;28;45601;-62
2022/07/22 20:58:35;;;;;;;4.38;2.97;;;20.40;54.20;22.60;94058.00;;;;10467948;28;45338;-62
2022/07/22 21:03:55;;;;;;;4.45;3.20;;;20.40;54.20;22.60;94059.00;;;;10487444;28;45244;-63
2022/07/22 21:09:16;;;;;;;4.35;3.17;;;20.40;54.20;22.60;94096.00;;;;10476777;28;45418;-63
2022/07/22 21:14:37;;;;;;;4.50;3.20;;;20.40;54.20;22.60;94106.00;;;;10477212;28;45198;-63
2022/07/22 21:19:58;;;;;;;4.72;2.78;;;20.40;54.30;22.60;94177.00;;;;10482197;28;45343;-62
2022/07/22 21:25:19;;;;;;;3.95;3.03;;;20.40;54.30;22.60;94232.00;;;;10481560;28;45211;-63
2022/07/22 21:30:41;;;;;;;5.45;3.40;;;20.40;54.40;22.50;94246.00;;;;10481437;28;45511;-63
2022/07/22 21:36:01;;;;;;;6.18;3.35;;;20.40;56.80;22.60;94214.00;;;;10469310;28;45218;-63
2022/07/22 21:41:22;;;;;;;4.70;3.45;;;20.40;56.20;22.50;94206.00;;;;10482027;28;45223;-63
2022/07/22 21:46:44;;;;;;;4.78;3.35;;;20.30;57.50;22.50;94159.00;;;;10481516;28;45302;-62
2022/07/22 21:52:05;;;;;;;4.18;3.15;;;20.40;60.30;22.50;94162.00;;;;10497873;28;45343;-63
2022/07/22 21:57:25;;;;;;;5.30;3.35;;;20.40;62.10;22.50;94115.00;;;;10480494;28;45229;-66
2022/07/22 22:02:47;;;;;;;5.00;3.28;;;20.40;61.70;22.50;94128.00;;;;10490748;28;45170;-62
2022/07/22 22:08:09;;;;;;;5.13;3.38;;;20.40;62.10;22.40;94039.00;;;;10495132;28;45426;-63
2022/07/22 22:13:31;;;;;;;6.00;3.40;;;20.30;62.40;22.50;94023.00;;;;10478430;28;45241;-63
2022/07/22 22:18:54;;;;;;;4.22;3.15;;;20.30;61.90;22.40;94014.00;;;;10480117;28;45310;-62
2022/07/22 22:24:15;;;;;;;4.13;3.22;;;20.30;61.10;22.40;94003.00;;;;10480070;28;45215;-62
2022/07/22 22:29:35;;;;;;;4.63;3.28;;;20.30;61.30;22.40;94024.00;;;;10468732;28;45295;-63
2022/07/22 22:34:57;;;;;;;4.20;3.25;;;20.30;61.50;22.40;94047.00;;;;10479559;28;45090;-62
2022/07/22 22:40:18;;;;;;;4.85;3.10;;;20.30;61.30;22.40;94050.00;;;;10479754;28;45487;-63
2022/07/22 22:45:38;;;;;;;4.45;3.55;;;20.30;61.20;22.40;94084.00;;;;10465185;28;45291;-62
2022/07/22 22:51:00;;;;;;;4.35;3.25;;;20.30;61.50;22.40;94082.00;;;;10483152;28;45284;-62
2022/07/22 22:56:20;;;;;;;4.40;3.25;;;20.30;61.10;22.30;94105.00;;;;10484473;28;45338;-62
2022/07/22 23:01:41;;;;;;;4.63;2.85;;;20.30;61.20;22.30;94123.00;;;;10479265;28;45275;-62
2022/07/22 23:07:03;;;;;;;3.90;3.05;;;20.30;61.90;22.30;94139.00;;;;10488480;28;45238;-64
2022/07/22 23:12:23;;;;;;;4.55;2.95;;;20.20;62.40;22.30;94166.00;;;;10479385;28;45357;-62
2022/07/22 23:17:44;;;;;;;4.32;3.03;;;20.20;63.00;22.30;94180.00;;;;10478803;28;45186;-62
2022/07/22 23:23:06;;;;;;;4.43;2.95;;;20.20;62.70;22.30;94197.00;;;;10466245;28;45168;-63
2022/07/22 23:28:26;;;;;;;4.00;2.80;;;20.20;62.00;22.40;94193.00;;;;10477999;28;45212;-64
2022/07/22 23:33:47;;;;;;;2.83;2.53;;;20.20;61.50;22.40;94190.00;;;;10477968;28;45170;-63
2022/07/22 23:39:09;;;;;;;4.78;3.00;;;20.20;60.60;22.40;94124.00;;;;10465808;28;45450;-63